sensor_id;sensor_type;location;lat;lon;timestamp;pressure;altitude;pressure_sealevel;temperature;humidity
44127;BME280;29786;50.798;7.302;2023-06-19T00:03:50;98610;;;21.99;88.74
44127;BME280;29786;50.798;7.302;2023-06-19T00:08:47;98620;;;21.36;96.94
44127;BME280;29786;50.798;7.302;2023-06-19T00:13:43;98610;;;21.71;89.76
44127;BME280;29786;50.798;7.302;2023-06-19T00:18:40;98600;;;21.86;86.76
44127;BME280;29786;50.798;7.302;2023-06-19T00:24:51;98600;;;21.75;84.74
44127;BME280;29786;50.798;7.302;2023-06-19T00:29:47;98600;;;21.69;83.67
44127;BME280;29786;50.798;7.302;2023-06-19T00:34:44;98600;;;21.48;84.57
44127;BME280;29786;50.798;7.302;2023-06-19T00:39:40;98620;;;21.71;82.63
44127;BME280;29786;50.798;7.302;2023-06-19T00:45:51;98630;;;21.76;83.26
44127;BME280;29786;50.798;7.302;2023-06-19T00:50:48;98630;;;21.97;80.61
44127;BME280;29786;50.798;7.302;2023-06-19T00:55:44;98640;;;21.81;81.12
44127;BME280;29786;50.798;7.302;2023-06-19T01:00:40;98640;;;21.69;81.79
44127;BME280;29786;50.798;7.302;2023-06-19T01:05:37;98640;;;21.79;79.97
44127;BME280;29786;50.798;7.302;2023-06-19T01:11:50;98650;;;22;77.23
44127;BME280;29786;50.798;7.302;2023-06-19T01:16:44;98650;;;21.91;78.81
44127;BME280;29786;50.798;7.302;2023-06-19T01:21:41;98640;;;21.93;78.14
44127;BME280;29786;50.798;7.302;2023-06-19T01:27:51;98630;;;21.98;77.59
44127;BME280;29786;50.798;7.302;2023-06-19T01:33:07;98630;;;21.86;79.36
44127;BME280;29786;50.798;7.302;2023-06-19T01:37:44;98610;;;21.75;80.19
44127;BME280;29786;50.798;7.302;2023-06-19T01:42:41;98640;;;21.78;79.75
44127;BME280;29786;50.798;7.302;2023-06-19T01:48:52;98640;;;21.86;77.16
44127;BME280;29786;50.798;7.302;2023-06-19T01:53:48;98650;;;21.75;78.52
44127;BME280;29786;50.798;7.302;2023-06-19T01:58:45;98640;;;21.54;76.8
44127;BME280;29786;50.798;7.302;2023-06-19T02:03:41;98650;;;21.63;78.27
44127;BME280;29786;50.798;7.302;2023-06-19T02:08:38;98660;;;21.64;77.11
44127;BME280;29786;50.798;7.302;2023-06-19T02:14:48;98670;;;21.96;73.57
44127;BME280;29786;50.798;7.302;2023-06-19T02:19:45;98660;;;21.62;74.69
44127;BME280;29786;50.798;7.302;2023-06-19T02:24:42;98670;;;21.74;74.67
44127;BME280;29786;50.798;7.302;2023-06-19T02:29:38;98680;;;21.74;73.86
44127;BME280;29786;50.798;7.302;2023-06-19T02:35:49;98700;;;21.53;74.82
44127;BME280;29786;50.798;7.302;2023-06-19T02:40:45;98700;;;21.65;74.63
44127;BME280;29786;50.798;7.302;2023-06-19T02:45:42;98710;;;21.86;72.77
44127;BME280;29786;50.798;7.302;2023-06-19T02:50:38;98710;;;21.92;72.58
44127;BME280;29786;50.798;7.302;2023-06-19T02:56:49;98720;;;21.96;70.91
44127;BME280;29786;50.798;7.302;2023-06-19T03:01:46;98720;;;21.89;70.92
44127;BME280;29786;50.798;7.302;2023-06-19T03:17:49;98730;;;21.15;77.54
44127;BME280;29786;50.798;7.302;2023-06-19T03:22:46;98740;;;21.29;76.55
44127;BME280;29786;50.798;7.302;2023-06-19T03:27:42;98740;;;21.23;76.62
44127;BME280;29786;50.798;7.302;2023-06-19T03:32:39;98760;;;21.12;77.46
44127;BME280;29786;50.798;7.302;2023-06-19T03:38:50;98760;;;21.14;78.02
44127;BME280;29786;50.798;7.302;2023-06-19T03:43:46;98760;;;21.44;77.41
44127;BME280;29786;50.798;7.302;2023-06-19T03:48:43;98770;;;21.43;78.13
44127;BME280;29786;50.798;7.302;2023-06-19T03:53:39;98780;;;21.41;79.45
44127;BME280;29786;50.798;7.302;2023-06-19T03:59:50;98790;;;21.34;80.6
44127;BME280;29786;50.798;7.302;2023-06-19T04:04:46;98800;;;21.21;82.69
44127;BME280;29786;50.798;7.302;2023-06-19T04:09:43;98800;;;21.09;85.56
44127;BME280;29786;50.798;7.302;2023-06-19T04:14:39;98810;;;21.03;87.91
44127;BME280;29786;50.798;7.302;2023-06-19T04:20:50;98820;;;20.98;90.49
44127;BME280;29786;50.798;7.302;2023-06-19T04:25:47;98830;;;20.96;90.84
44127;BME280;29786;50.798;7.302;2023-06-19T04:30:43;98840;;;20.96;91.86
44127;BME280;29786;50.798;7.302;2023-06-19T04:35:40;98850;;;21.08;91.82
44127;BME280;29786;50.798;7.302;2023-06-19T04:40:44;98850;;;21.32;90.45
44127;BME280;29786;50.798;7.302;2023-06-19T04:45:41;98850;;;21.33;90.58
44127;BME280;29786;50.798;7.302;2023-06-19T04:50:38;98850;;;21.27;92.22
44127;BME280;29786;50.798;7.302;2023-06-19T04:56:48;98850;;;21.15;94
44127;BME280;29786;50.798;7.302;2023-06-19T05:01:45;98840;;;20.87;96.84
44127;BME280;29786;50.798;7.302;2023-06-19T05:06:41;98880;;;21.05;97.45
44127;BME280;29786;50.798;7.302;2023-06-19T05:11:38;98890;;;20.87;100
44127;BME280;29786;50.798;7.302;2023-06-19T05:17:48;98890;;;20.78;100
44127;BME280;29786;50.798;7.302;2023-06-19T05:22:45;98870;;;20.6;100
44127;BME280;29786;50.798;7.302;2023-06-19T05:27:41;98890;;;20.76;100
44127;BME280;29786;50.798;7.302;2023-06-19T05:32:38;98890;;;20.62;100
44127;BME280;29786;50.798;7.302;2023-06-19T05:38:49;98880;;;20.69;100
44127;BME280;29786;50.798;7.302;2023-06-19T05:43:45;98880;;;21.03;100
44127;BME280;29786;50.798;7.302;2023-06-19T05:48:42;98880;;;21.05;100
44127;BME280;29786;50.798;7.302;2023-06-19T05:53:38;98890;;;20.96;100
44127;BME280;29786;50.798;7.302;2023-06-19T05:59:49;98900;;;21.32;100
44127;BME280;29786;50.798;7.302;2023-06-19T06:04:46;98910;;;21.65;99.9
44127;BME280;29786;50.798;7.302;2023-06-19T06:09:42;98910;;;21.92;97.63
44127;BME280;29786;50.798;7.302;2023-06-19T06:14:40;98920;;;22.27;95.52
44127;BME280;29786;50.798;7.302;2023-06-19T06:20:49;98930;;;22.21;97.49
44127;BME280;29786;50.798;7.302;2023-06-19T06:25:46;98920;;;22.37;95.73
44127;BME280;29786;50.798;7.302;2023-06-19T06:30:42;98910;;;22.56;92.61
44127;BME280;29786;50.798;7.302;2023-06-19T06:35:39;98900;;;22.94;90.02
44127;BME280;29786;50.798;7.302;2023-06-19T06:41:50;98900;;;22.62;92.48
44127;BME280;29786;50.798;7.302;2023-06-19T06:46:46;98910;;;22.19;96.05
44127;BME280;29786;50.798;7.302;2023-06-19T06:51:43;98920;;;22.62;92.41
44127;BME280;29786;50.798;7.302;2023-06-19T06:56:39;98930;;;22.29;95.65
44127;BME280;29786;50.798;7.302;2023-06-19T07:02:50;98940;;;21.69;100
44127;BME280;29786;50.798;7.302;2023-06-19T07:07:46;98940;;;21.76;100
44127;BME280;29786;50.798;7.302;2023-06-19T07:12:45;98940;;;21.92;100
44127;BME280;29786;50.798;7.302;2023-06-19T07:17:39;98940;;;22.4;97.19
44127;BME280;29786;50.798;7.302;2023-06-19T07:23:50;98940;;;22.78;96.04
44127;BME280;29786;50.798;7.302;2023-06-19T07:28:47;98950;;;23.29;87.23
44127;BME280;29786;50.798;7.302;2023-06-19T07:33:43;98950;;;23.93;84.4
44127;BME280;29786;50.798;7.302;2023-06-19T07:44:50;98950;;;24.03;80.36
44127;BME280;29786;50.798;7.302;2023-06-19T07:49:47;98960;;;23.87;80.25
44127;BME280;29786;50.798;7.302;2023-06-19T07:54:47;98970;;;22.92;86.46
44127;BME280;29786;50.798;7.302;2023-06-19T07:59:40;98960;;;23.27;83.62
44127;BME280;29786;50.798;7.302;2023-06-19T08:05:51;98960;;;23.28;84.22
44127;BME280;29786;50.798;7.302;2023-06-19T08:10:47;98960;;;23.4;86.52
44127;BME280;29786;50.798;7.302;2023-06-19T08:15:44;98970;;;23.61;82.71
44127;BME280;29786;50.798;7.302;2023-06-19T08:20:40;98960;;;23.69;79.59
44127;BME280;29786;50.798;7.302;2023-06-19T08:26:51;98960;;;24.46;74.77
44127;BME280;29786;50.798;7.302;2023-06-19T08:31:47;98970;;;24.27;72.37
44127;BME280;29786;50.798;7.302;2023-06-19T08:36:44;98970;;;24.05;73.79
44127;BME280;29786;50.798;7.302;2023-06-19T08:41:40;98970;;;23.53;73.89
44127;BME280;29786;50.798;7.302;2023-06-19T08:47:57;98980;;;23.46;72.27
44127;BME280;29786;50.798;7.302;2023-06-19T08:52:48;98970;;;24.62;65.88
44127;BME280;29786;50.798;7.302;2023-06-19T08:57:44;98970;;;25.31;61.14
44127;BME280;29786;50.798;7.302;2023-06-19T09:02:42;98980;;;24.31;63.63
44127;BME280;29786;50.798;7.302;2023-06-19T09:08:59;98980;;;25.47;655.35
44127;BME280;29786;50.798;7.302;2023-06-19T09:13:55;98980;;;25.08;60.28
44127;BME280;29786;50.798;7.302;2023-06-19T09:18:45;98980;;;24.9;59.41
44127;BME280;29786;50.798;7.302;2023-06-19T09:23:41;98990;;;25.43;59.15
44127;BME280;29786;50.798;7.302;2023-06-19T09:29:52;99000;;;24.46;60.37
44127;BME280;29786;50.798;7.302;2023-06-19T09:34:49;98990;;;24.17;60.79
44127;BME280;29786;50.798;7.302;2023-06-19T09:39:45;98980;;;24.07;60.86
44127;BME280;29786;50.798;7.302;2023-06-19T09:44:42;98990;;;24.84;58.83
44127;BME280;29786;50.798;7.302;2023-06-19T09:50:52;98990;;;24.6;58.81
44127;BME280;29786;50.798;7.302;2023-06-19T09:55:49;98990;;;24.65;58.62
44127;BME280;29786;50.798;7.302;2023-06-19T10:00:45;98980;;;24.05;59.63
44127;BME280;29786;50.798;7.302;2023-06-19T10:03:13;98990;;;24.08;58.79
44127;BME280;29786;50.798;7.302;2023-06-19T10:05:42;99000;;;24.76;57.33
44127;BME280;29786;50.798;7.302;2023-06-19T10:10:45;99000;;;25.11;55.79
44127;BME280;29786;50.798;7.302;2023-06-19T10:16:49;99010;;;24.94;55.95
44127;BME280;29786;50.798;7.302;2023-06-19T10:21:48;99010;;;25.1;56.84
44127;BME280;29786;50.798;7.302;2023-06-19T10:26:42;99010;;;25.69;54.7
44127;BME280;29786;50.798;7.302;2023-06-19T10:31:38;99000;;;26.29;53.18
44127;BME280;29786;50.798;7.302;2023-06-19T10:37:49;98990;;;25.92;51.99
44127;BME280;29786;50.798;7.302;2023-06-19T10:42:46;98990;;;26.21;51.78
44127;BME280;29786;50.798;7.302;2023-06-19T10:47:42;98990;;;26.13;51.12
44127;BME280;29786;50.798;7.302;2023-06-19T10:52:39;98990;;;26.07;52.58
44127;BME280;29786;50.798;7.302;2023-06-19T10:58:58;98980;;;27.19;49.24
44127;BME280;29786;50.798;7.302;2023-06-19T11:03:46;98970;;;26.96;50.36
44127;BME280;29786;50.798;7.302;2023-06-19T11:08:49;98970;;;27.44;48.68
44127;BME280;29786;50.798;7.302;2023-06-19T11:13:39;98970;;;26.39;49.53
44127;BME280;29786;50.798;7.302;2023-06-19T11:19:50;98960;;;27.32;47.02
44127;BME280;29786;50.798;7.302;2023-06-19T11:24:46;98950;;;27.55;46.7
44127;BME280;29786;50.798;7.302;2023-06-19T11:29:43;98960;;;27.62;46.79
44127;BME280;29786;50.798;7.302;2023-06-19T11:34:39;98940;;;28.13;45.78
44127;BME280;29786;50.798;7.302;2023-06-19T11:40:50;98940;;;28.53;44.14
44127;BME280;29786;50.798;7.302;2023-06-19T11:45:47;98940;;;29.65;42.79
44127;BME280;29786;50.798;7.302;2023-06-19T11:50:43;98940;;;28.79;42.76
44127;BME280;29786;50.798;7.302;2023-06-19T11:55:39;98940;;;28.52;43.84
44127;BME280;29786;50.798;7.302;2023-06-19T12:01:50;98940;;;28.94;42.27
44127;BME280;29786;50.798;7.302;2023-06-19T12:06:47;98950;;;29.15;41.47
44127;BME280;29786;50.798;7.302;2023-06-19T12:11:43;98950;;;28.84;42.38
44127;BME280;29786;50.798;7.302;2023-06-19T12:22:50;98930;;;31.96;37.17
44127;BME280;29786;50.798;7.302;2023-06-19T12:27:47;98930;;;30.09;39.05
44127;BME280;29786;50.798;7.302;2023-06-19T12:32:43;98930;;;31.01;38.31
44127;BME280;29786;50.798;7.302;2023-06-19T12:37:40;98920;;;32.84;35.73
44127;BME280;29786;50.798;7.302;2023-06-19T12:43:51;98910;;;33.55;34.71
44127;BME280;29786;50.798;7.302;2023-06-19T12:48:47;98910;;;33;33.72
44127;BME280;29786;50.798;7.302;2023-06-19T12:53:44;98910;;;32.73;34.5
44127;BME280;29786;50.798;7.302;2023-06-19T12:58:40;98910;;;33.56;33.79
44127;BME280;29786;50.798;7.302;2023-06-19T13:04:51;98900;;;34.27;31.71
44127;BME280;29786;50.798;7.302;2023-06-19T13:09:47;98890;;;35.33;32.02
44127;BME280;29786;50.798;7.302;2023-06-19T13:14:44;98900;;;35.28;30.95
44127;BME280;29786;50.798;7.302;2023-06-19T13:19:40;98880;;;35.25;31.96
44127;BME280;29786;50.798;7.302;2023-06-19T13:25:51;98880;;;35.21;31.11
44127;BME280;29786;50.798;7.302;2023-06-19T13:30:48;98870;;;34.27;32.44
44127;BME280;29786;50.798;7.302;2023-06-19T13:35:44;98870;;;33.23;33.93
44127;BME280;29786;50.798;7.302;2023-06-19T13:40:41;98870;;;33.71;33.39
44127;BME280;29786;50.798;7.302;2023-06-19T13:46:51;98870;;;35.3;31.25
44127;BME280;29786;50.798;7.302;2023-06-19T13:51:48;98850;;;37.16;29.11
44127;BME280;29786;50.798;7.302;2023-06-19T13:56:45;98850;;;36.88;29.65
44127;BME280;29786;50.798;7.302;2023-06-19T14:01:41;98850;;;35.9;30.11
44127;BME280;29786;50.798;7.302;2023-06-19T14:06:38;98840;;;37.09;28.86
44127;BME280;29786;50.798;7.302;2023-06-19T14:12:48;98840;;;38.39;27.93
44127;BME280;29786;50.798;7.302;2023-06-19T14:17:45;98830;;;38.21;28.39
44127;BME280;29786;50.798;7.302;2023-06-19T14:22:41;98850;;;36.05;29.87
44127;BME280;29786;50.798;7.302;2023-06-19T14:27:38;98830;;;37.12;28.32
44127;BME280;29786;50.798;7.302;2023-06-19T14:33:48;98830;;;37.64;28.52
44127;BME280;29786;50.798;7.302;2023-06-19T14:38:45;98810;;;36.06;28.83
44127;BME280;29786;50.798;7.302;2023-06-19T14:43:42;98820;;;39;26.52
44127;BME280;29786;50.798;7.302;2023-06-19T14:49:52;98820;;;40.07;25.19
44127;BME280;29786;50.798;7.302;2023-06-19T14:54:49;98820;;;40.86;23.92
44127;BME280;29786;50.798;7.302;2023-06-19T14:59:45;98800;;;41.58;23.11
44127;BME280;29786;50.798;7.302;2023-06-19T15:04:42;98830;;;40.75;23.86
44127;BME280;29786;50.798;7.302;2023-06-19T15:09:39;98830;;;39.58;25.28
44127;BME280;29786;50.798;7.302;2023-06-19T15:15:49;98840;;;36.66;30.26
44127;BME280;29786;50.798;7.302;2023-06-19T15:20:46;98830;;;35.89;29.29
44127;BME280;29786;50.798;7.302;2023-06-19T15:25:42;98820;;;37.12;27.84
44127;BME280;29786;50.798;7.302;2023-06-19T15:30:39;98810;;;39.34;25.35
44127;BME280;29786;50.798;7.302;2023-06-19T15:36:49;98810;;;40.36;24.33
44127;BME280;29786;50.798;7.302;2023-06-19T15:41:46;98810;;;40.05;24.66
44127;BME280;29786;50.798;7.302;2023-06-19T15:46:43;98800;;;37.81;26.12
44127;BME280;29786;50.798;7.302;2023-06-19T15:51:39;98780;;;38.59;25.63
44127;BME280;29786;50.798;7.302;2023-06-19T15:57:50;98790;;;38.8;26.65
44127;BME280;29786;50.798;7.302;2023-06-19T16:02:46;98780;;;39.96;24.85
44127;BME280;29786;50.798;7.302;2023-06-19T16:07:43;98770;;;41.82;22.78
44127;BME280;29786;50.798;7.302;2023-06-19T16:12:39;98780;;;43.39;21.77
44127;BME280;29786;50.798;7.302;2023-06-19T16:18:50;98770;;;42.12;22.25
44127;BME280;29786;50.798;7.302;2023-06-19T16:23:47;98770;;;41.24;23.6
44127;BME280;29786;50.798;7.302;2023-06-19T16:28:43;98780;;;36.11;29.72
44127;BME280;29786;50.798;7.302;2023-06-19T16:33:40;98790;;;34.23;32.59
44127;BME280;29786;50.798;7.302;2023-06-19T16:39:50;98780;;;33.68;33.64
44127;BME280;29786;50.798;7.302;2023-06-19T16:44:47;98780;;;34.62;32.38
44127;BME280;29786;50.798;7.302;2023-06-19T16:49:44;98780;;;33.71;33.09
44127;BME280;29786;50.798;7.302;2023-06-19T17:00:51;98780;;;34.37;33.32
44127;BME280;29786;50.798;7.302;2023-06-19T17:04:41;98780;;;33.78;33.43
44127;BME280;29786;50.798;7.302;2023-06-19T17:10:52;98780;;;33.59;33.95
44127;BME280;29786;50.798;7.302;2023-06-19T17:15:48;98780;;;38.16;28.12
44127;BME280;29786;50.798;7.302;2023-06-19T17:20:45;98760;;;38.68;27.59
44127;BME280;29786;50.798;7.302;2023-06-19T17:25:41;98780;;;37.63;27.9
44127;BME280;29786;50.798;7.302;2023-06-19T17:30:38;98780;;;36.22;30.04
44127;BME280;29786;50.798;7.302;2023-06-19T17:36:49;98780;;;35.84;30.31
44127;BME280;29786;50.798;7.302;2023-06-19T17:41:45;98760;;;34.79;31.64
44127;BME280;29786;50.798;7.302;2023-06-19T17:46:42;98780;;;32.41;34.62
44127;BME280;29786;50.798;7.302;2023-06-19T17:51:38;98780;;;31.39;37.2
44127;BME280;29786;50.798;7.302;2023-06-19T17:57:49;98780;;;30.63;38.68
44127;BME280;29786;50.798;7.302;2023-06-19T18:02:45;98770;;;30.07;39.28
44127;BME280;29786;50.798;7.302;2023-06-19T18:07:42;98800;;;29.9;40.25
44127;BME280;29786;50.798;7.302;2023-06-19T18:12:38;98800;;;29.44;40.88
44127;BME280;29786;50.798;7.302;2023-06-19T18:18:49;98800;;;29.03;41.75
44127;BME280;29786;50.798;7.302;2023-06-19T18:28:42;98810;;;28.86;42.72
44127;BME280;29786;50.798;7.302;2023-06-19T18:33:39;98800;;;28.72;42.34
44127;BME280;29786;50.798;7.302;2023-06-19T18:39:49;98810;;;28.42;43.2
44127;BME280;29786;50.798;7.302;2023-06-19T18:44:46;98800;;;28;44.68
44127;BME280;29786;50.798;7.302;2023-06-19T18:49:42;98800;;;27.81;44.96
44127;BME280;29786;50.798;7.302;2023-06-19T19:00:50;98800;;;27.42;46.16
44127;BME280;29786;50.798;7.302;2023-06-19T19:05:46;98800;;;27.17;46.83
44127;BME280;29786;50.798;7.302;2023-06-19T19:10:43;98810;;;26.83;47.62
44127;BME280;29786;50.798;7.302;2023-06-19T19:15:39;98810;;;26.66;48.18
44127;BME280;29786;50.798;7.302;2023-06-19T19:21:50;98810;;;26.57;48.59
44127;BME280;29786;50.798;7.302;2023-06-19T19:26:46;98810;;;26.51;48.58
44127;BME280;29786;50.798;7.302;2023-06-19T19:31:43;98810;;;26.39;49.31
44127;BME280;29786;50.798;7.302;2023-06-19T19:36:39;98830;;;26.06;49.8
44127;BME280;29786;50.798;7.302;2023-06-19T19:42:50;98830;;;25.94;50.43
44127;BME280;29786;50.798;7.302;2023-06-19T19:47:47;98840;;;26.04;49.93
44127;BME280;29786;50.798;7.302;2023-06-19T19:52:43;98840;;;26.25;49.33
44127;BME280;29786;50.798;7.302;2023-06-19T19:57:40;98840;;;26.29;49.27
44127;BME280;29786;50.798;7.302;2023-06-19T20:03:50;98840;;;26.32;49.23
44127;BME280;29786;50.798;7.302;2023-06-19T20:08:47;98850;;;26.31;49.57
44127;BME280;29786;50.798;7.302;2023-06-19T20:13:43;98850;;;26.36;49.77
44127;BME280;29786;50.798;7.302;2023-06-19T20:18:40;98850;;;26.01;50.56
44127;BME280;29786;50.798;7.302;2023-06-19T20:24:51;98850;;;25.77;51.64
44127;BME280;29786;50.798;7.302;2023-06-19T20:29:47;98850;;;25.49;52.57
44127;BME280;29786;50.798;7.302;2023-06-19T20:34:44;98860;;;25.6;52.74
44127;BME280;29786;50.798;7.302;2023-06-19T20:39:40;98870;;;25.28;53.89
44127;BME280;29786;50.798;7.302;2023-06-19T20:45:51;98860;;;25.31;53.82
44127;BME280;29786;50.798;7.302;2023-06-19T20:50:47;98860;;;25.14;54.82
44127;BME280;29786;50.798;7.302;2023-06-19T20:55:44;98860;;;24.99;55.94
44127;BME280;29786;50.798;7.302;2023-06-19T21:00:42;98860;;;24.95;55.96
44127;BME280;29786;50.798;7.302;2023-06-19T21:06:51;98840;;;24.86;56.28
44127;BME280;29786;50.798;7.302;2023-06-19T21:11:48;98850;;;24.63;56.35
44127;BME280;29786;50.798;7.302;2023-06-19T21:16:44;98850;;;24.59;57.24
44127;BME280;29786;50.798;7.302;2023-06-19T21:21:41;98840;;;24.68;56.95
44127;BME280;29786;50.798;7.302;2023-06-19T21:27:51;98840;;;24.6;57.13
44127;BME280;29786;50.798;7.302;2023-06-19T21:32:48;98840;;;24.61;56.47
44127;BME280;29786;50.798;7.302;2023-06-19T21:37:45;98840;;;24.7;56.26
44127;BME280;29786;50.798;7.302;2023-06-19T21:42:41;98830;;;24.79;55.63
44127;BME280;29786;50.798;7.302;2023-06-19T21:48:52;98840;;;24.68;55.65
44127;BME280;29786;50.798;7.302;2023-06-19T21:53:48;98820;;;24.7;55.08
44127;BME280;29786;50.798;7.302;2023-06-19T21:58:45;98820;;;24.69;54.46
44127;BME280;29786;50.798;7.302;2023-06-19T22:03:41;98830;;;24.89;54.31
44127;BME280;29786;50.798;7.302;2023-06-19T22:08:38;98830;;;24.69;54.84
44127;BME280;29786;50.798;7.302;2023-06-19T22:14:49;98830;;;24.64;55
44127;BME280;29786;50.798;7.302;2023-06-19T22:19:45;98810;;;24.39;55.55
44127;BME280;29786;50.798;7.302;2023-06-19T22:24:42;98820;;;24.37;56.16
44127;BME280;29786;50.798;7.302;2023-06-19T22:30:52;98830;;;24.29;57.3
44127;BME280;29786;50.798;7.302;2023-06-19T22:35:49;98830;;;24.36;56.92
44127;BME280;29786;50.798;7.302;2023-06-19T22:40:45;98820;;;24.16;57.94
44127;BME280;29786;50.798;7.302;2023-06-19T22:45:42;98840;;;24.19;58.16
44127;BME280;29786;50.798;7.302;2023-06-19T22:50:38;98840;;;24.38;56.78
44127;BME280;29786;50.798;7.302;2023-06-19T22:56:49;98840;;;24.32;57.04
44127;BME280;29786;50.798;7.302;2023-06-19T23:01:46;98830;;;24.46;55.79
44127;BME280;29786;50.798;7.302;2023-06-19T23:06:42;98830;;;24.61;55.13
44127;BME280;29786;50.798;7.302;2023-06-19T23:11:39;98820;;;24.5;55.42
44127;BME280;29786;50.798;7.302;2023-06-19T23:17:49;98830;;;24.5;55.37
44127;BME280;29786;50.798;7.302;2023-06-19T23:22:46;98820;;;24.53;55.03
44127;BME280;29786;50.798;7.302;2023-06-19T23:27:42;98820;;;24.3;55.84
44127;BME280;29786;50.798;7.302;2023-06-19T23:38:50;98810;;;24.13;56.65
44127;BME280;29786;50.798;7.302;2023-06-19T23:43:47;98810;;;23.96;57.28
44127;BME280;29786;50.798;7.302;2023-06-19T23:48:43;98820;;;24.26;56.26
44127;BME280;29786;50.798;7.302;2023-06-19T23:53:39;98820;;;24.36;55.53
44127;BME280;29786;50.798;7.302;2023-06-19T23:59:50;98820;;;24.3;55.86
